D/T METAR WX W/DIR W/SPE G/SPE TEMP DEWP
16/01/19 02:50 EGVN 160250Z 23008KT 9999 -DZ BKN012 09/07 Q1009 NOSIG -DZ SW (230°) 9.2mph 9°C 7°C
16/01/19 01:50 EGVN 160150Z 23007KT 9999 BKN012 08/06 Q1010 NOSIG SW (230°) 8.1mph 8°C 6°C
16/01/19 00:50 EGVN 160050Z 23007KT 9999 FEW014 SCT022 BKN036 08/06 Q1011 WHT TEMPO SCT014 GRN SW (230°) 8.1mph 8°C 6°C
15/01/19 23:50 EGVN 152350Z 22006KT 9999 FEW022 SCT030 BKN140 08/06 Q1012 NOSIG SW (220°) 6.9mph 8°C 6°C
15/01/19 22:50 EGVN 152250Z 22007KT 9999 FEW018 SCT025 BKN150 08/05 Q1012 NOSIG SW (220°) 8.1mph 8°C 5°C
15/01/19 21:50 EGVN 152150Z 23006KT 9999 FEW018 BKN032 08/05 Q1013 TEMPO SCT018 SW (230°) 6.9mph 8°C 5°C
15/01/19 20:50 EGVN 152050Z 23007KT 9999 FEW018 SCT025 BKN150 08/06 Q1014 BLU NOSIG SW (230°) 8.1mph 8°C 6°C
15/01/19 19:50 EGVN 151950Z 23005KT 9999 FEW005 BKN014 08/07 Q1014 GRN NOSIG SW (230°) 5.8mph 8°C 7°C
15/01/19 18:50 EGVN 151850Z 24006KT 5000 -DZ OVC005 08/07 Q1015 YLO1 TEMPO 9999 NSW BKN007 GRN -DZ WSW (240°) 6.9mph 8°C 7°C
15/01/19 18:50 EGVN 151850Z 24006KT 5000 -DZ OVC005 08/07 Q1015 TEMPO 9999 NSW BKN007 -DZ WSW (240°) 6.9mph 8°C 7°C
15/01/19 17:50 EGVN 151750Z 24006KT 9999 SCT010 BKN024 08/07 Q1015 NOSIG WSW (240°) 6.9mph 8°C 7°C
15/01/19 16:50 EGVN 151650Z 25005KT 9999 SCT010 SCT170 08/07 Q1016 GRN NOSIG WSW (250°) 5.8mph 8°C 7°C
15/01/19 15:50 EGVN 151550Z 24005KT 9999 BKN012 BKN035 09/07 Q1016 GRN NOSIG WSW (240°) 5.8mph 9°C 7°C
15/01/19 14:50 EGVN 151450Z 23005KT 9999 SCT014 BKN030 09/07 Q1017 NOSIG SW (230°) 5.8mph 9°C 7°C
15/01/19 13:50 EGVN 151350Z 25005KT 9999 FEW012 BKN027 09/06 Q1017 BLU TEMPO SCT012 GRN WSW (250°) 5.8mph 9°C 6°C
15/01/19 12:50 EGVN 151250Z 24005KT 9999 FEW006 SCT030 BKN250 09/07 Q1018 BLU TEMPO SCT012 GRN WSW (240°) 5.8mph 9°C 7°C
15/01/19 11:50 EGVN 151150Z 24005KT 9999 -DZ OVC006 07/07 Q1019 YLO1 TEMPO SCT008 GRN -DZ WSW (240°) 5.8mph 7°C 7°C
15/01/19 10:50 EGVN 151050Z 23006KT 9999 BKN007 BKN035 07/06 Q1019 NOSIG SW (230°) 6.9mph 7°C 6°C
15/01/19 09:50 EGVN 150950Z 23006KT 9999 SCT008 BKN037 07/06 Q1019 GRN TEMPO FEW008 BLU SW (230°) 6.9mph 7°C 6°C
15/01/19 09:50 EGVN 150950Z 23006KT 9999 SCT008 BKN037 07/06 Q1019 TEMPO FEW008 SW (230°) 6.9mph 7°C 6°C
15/01/19 09:20 EGVN 150920Z 23004KT 9999 BKN008 BKN035 07/06 Q1020 GRN NOSIG SW (230°) 4.6mph 7°C 6°C
15/01/19 07:50 EGVN 150750Z 25005KT 9999 BKN032 07/05 Q1020 NOSIG WSW (250°) 5.8mph 7°C 5°C
15/01/19 06:50 EGVN 150650Z 23004KT 9999 FEW025 BKN033 05/04 Q1020 NOSIG SW (230°) 4.6mph 5°C 4°C
15/01/19 05:50 EGVN 150550Z 27004KT 9999 BKN026 05/04 Q1020 BLU TEMPO BKN024 WHT W (270°) 4.6mph 5°C 4°C
15/01/19 04:50 EGVN 150450Z 27006KT 9999 BKN025 04/03 Q1020 BLU TEMPO BKN024 WHT W (270°) 6.9mph 4°C 3°C
15/01/19 03:50 EGVN 150350Z 26003KT CAVOK 02/01 Q1021 NOSIG W (260°) 3.5mph 2°C 1°C
15/01/19 02:50 EGVN 150250Z 25002KT CAVOK 02/01 Q1021 NOSIG WSW (250°) 2.3mph 2°C 1°C
15/01/19 01:50 EGVN 150150Z 25003KT 9999 FEW045 03/02 Q1022 NOSIG WSW (250°) 3.5mph 3°C 2°C
15/01/19 00:50 EGVN 150050Z 24002KT 9999 FEW045 01/M00 Q1022 NOSIG WSW (240°) 2.3mph 1°C 0°C
14/01/19 23:50 EGVN 142350Z 25001KT 9999 FEW045 02/00 Q1023 NOSIG WSW (250°) 1.2mph 2°C 0°C
14/01/19 22:50 EGVN 142250Z 24003KT 9999 FEW045 03/01 Q1023 NOSIG WSW (240°) 3.5mph 3°C 1°C
14/01/19 21:50 EGVN 142150Z 27003KT 9999 FEW045 03/01 Q1023 BLU NOSIG W (270°) 3.5mph 3°C 1°C
14/01/19 20:50 EGVN 142050Z 26005KT 9999 FEW045 05/02 Q1023 BLU NOSIG W (260°) 5.8mph 5°C 2°C
14/01/19 19:50 EGVN 141950Z 27003KT 9999 FEW045 05/02 Q1023 NOSIG W (270°) 3.5mph 5°C 2°C
14/01/19 18:50 EGVN 141850Z 26003KT 9999 FEW045 06/02 Q1023 NOSIG W (260°) 3.5mph 6°C 2°C
14/01/19 17:50 EGVN 141750Z 27005KT 9999 BKN045 07/02 Q1023 BLU NOSIG W (270°) 5.8mph 7°C 2°C
14/01/19 16:50 EGVN 141650Z 28005KT 9999 BKN048 08/01 Q1022 NOSIG W (280°) 5.8mph 8°C 1°C
14/01/19 15:50 EGVN 141550Z 29007KT 9999 BKN044 08/01 Q1022 NOSIG WNW (290°) 8.1mph 8°C 1°C
14/01/19 14:50 EGVN 141450Z 29006KT 9999 FEW032 BKN045 09/02 Q1022 NOSIG WNW (290°) 6.9mph 9°C 2°C
14/01/19 13:50 EGVN 141350Z 31007KT 9999 SCT032 BKN040 09/03 Q1022 NOSIG NW (310°) 8.1mph 9°C 3°C
14/01/19 12:50 EGVN 141250Z 30007KT 9999 FEW024 BKN040 09/03 Q1022 BLU NOSIG WNW (300°) 8.1mph 9°C 3°C
14/01/19 11:50 EGVN 141150Z 31007KT 9999 FEW020 BKN045 09/03 Q1022 NOSIG NW (310°) 8.1mph 9°C 3°C
14/01/19 10:50 EGVN 141050Z 30007KT 9999 BKN042 08/03 Q1021 NOSIG WNW (300°) 8.1mph 8°C 3°C
14/01/19 09:50 EGVN 140950Z 30007KT 9999 FEW030 BKN050 07/03 Q1021 NOSIG WNW (300°) 8.1mph 7°C 3°C
14/01/19 08:50 EGVN 140850Z 30006KT 9999 VCSH SCT026 SCT038 BKN050 07/03 Q1020 BLU NOSIG VCSH WNW (300°) 6.9mph 7°C 3°C
14/01/19 07:50 EGVN 140750Z 29005KT 9999 BKN032 07/03 Q1020 NOSIG WNW (290°) 5.8mph 7°C 3°C
14/01/19 06:50 EGVN 140650Z 28005KT 9999 BKN030 07/02 Q1019 NOSIG W (280°) 5.8mph 7°C 2°C
14/01/19 05:50 EGVN 140550Z 29008KT 9999 BKN038 07/02 Q1018 NOSIG WNW (290°) 9.2mph 7°C 2°C
14/01/19 04:50 EGVN 140450Z 30009KT 9999 SCT040 07/02 Q1018 NOSIG WNW (300°) 10.4mph 7°C 2°C
14/01/19 03:50 EGVN 140350Z 30008KT 9999 BKN040 08/03 Q1018 NOSIG WNW (300°) 9.2mph 8°C 3°C
14/01/19 02:50 EGVN 140250Z 27004KT 9999 BKN038 08/03 Q1017 NOSIG W (270°) 4.6mph 8°C 3°C
14/01/19 01:50 EGVN 140150Z 29007G17KT 9999 BKN045 08/02 Q1016 NOSIG WNW (290°) 8.1mph 19.6mph 8°C 2°C
14/01/19 00:50 EGVN 140050Z 30009KT 9999 BKN043 08/02 Q1016 NOSIG WNW (300°) 10.4mph 8°C 2°C
13/01/19 23:50 EGVN 132350Z 29008KT 9999 BKN045 09/02 Q1015 NOSIG WNW (290°) 9.2mph 9°C 2°C
13/01/19 22:50 EGVN 132250Z 31011KT 9999 BKN045 09/02 Q1015 NOSIG NW (310°) 12.7mph 9°C 2°C
13/01/19 21:50 EGVN 132150Z 32016KT 9999 SCT045 09/03 Q1014 NOSIG NW (320°) 18.4mph 9°C 3°C
13/01/19 20:50 EGVN 132050Z 31009KT CAVOK 09/04 Q1014 NOSIG NW (310°) 10.4mph 9°C 4°C
13/01/19 19:50 EGVN 131950Z 33015G25KT 9999 SCT045 10/05 Q1013 NOSIG NNW (330°) 17.3mph 28.8mph 10°C 5°C
13/01/19 18:50 EGVN 131850Z 31013KT 9999 FEW032 BKN040 11/05 Q1012 NOSIG NW (310°) 15.0mph 11°C 5°C
13/01/19 17:50 EGVN 131750Z 29011KT 9999 FEW030 BKN038 11/06 Q1012 NOSIG WNW (290°) 12.7mph 11°C 6°C
13/01/19 16:50 EGVN 131650Z 29011KT 9999 FEW030 BKN040 11/07 Q1012 NOSIG WNW (290°) 12.7mph 11°C 7°C
13/01/19 15:50 EGVN 131550Z 30013KT 9999 FEW020 BKN027 11/07 Q1012 BLU NOSIG WNW (300°) 15.0mph 11°C 7°C
13/01/19 14:50 EGVN 131450Z 29012KT 9999 -SHRA SCT020 BKN025 11/08 Q1012 WHT BECMG FEW020 BLU -SHRA WNW (290°) 13.8mph 11°C 8°C
13/01/19 13:50 EGVN 131350Z 25008KT 9999 FEW016 BKN022 11/08 Q1012 NOSIG WSW (250°) 9.2mph 11°C 8°C
13/01/19 12:50 EGVN 131250Z 26010KT 9999 BKN018 10/08 Q1012 WHT NOSIG W (260°) 11.5mph 10°C 8°C
13/01/19 11:50 EGVN 131150Z 26011KT 9999 FEW015 BKN018 10/07 Q1014 NOSIG W (260°) 12.7mph 10°C 7°C
13/01/19 10:50 EGVN 131050Z 25009G20KT 9999 BKN021 09/07 Q1014 NOSIG WSW (250°) 10.4mph 23.0mph 9°C 7°C
13/01/19 10:15 EGVN 131015Z 25009KT 9999 BKN023 BKN130 09/06 Q1015 WHT TEMPO BKN025 BLU WSW (250°) 10.4mph 9°C 6°C
13/01/19 09:50 EGVN 130950Z 27009KT 9999 BKN026 BKN130 09/06 Q1016 TEMPO BKN024 W (270°) 10.4mph 9°C 6°C
13/01/19 08:50 EGVN 130850Z 26011KT 9999 FEW030 BKN120 BKN240 08/07 Q1016 NOSIG W (260°) 12.7mph 8°C 7°C
13/01/19 07:50 EGVN 130750Z 26008KT CAVOK 09/07 Q1016 NOSIG W (260°) 9.2mph 9°C 7°C
13/01/19 06:50 EGVN 130650Z 27010KT CAVOK 09/07 Q1015 NOSIG W (270°) 11.5mph 9°C 7°C
13/01/19 05:50 EGVN 130550Z 23005KT CAVOK 10/07 Q1015 NOSIG SW (230°) 5.8mph 10°C 7°C
13/01/19 04:50 EGVN 130450Z 27008KT 9999 SCT019 BKN140 10/08 Q1016 NOSIG W (270°) 9.2mph 10°C 8°C
13/01/19 03:50 EGVN 130350Z 27009KT 9999 BKN019 BKN170 10/07 Q1017 NOSIG W (270°) 10.4mph 10°C 7°C
13/01/19 02:50 EGVN 130250Z 29013KT 9999 SCT019 BKN120 11/08 Q1018 NOSIG WNW (290°) 15.0mph 11°C 8°C
13/01/19 01:50 EGVN 130150Z 28009KT 9999 BKN020 11/08 Q1018 WHT TEMPO FEW020 BLU W (280°) 10.4mph 11°C 8°C
13/01/19 00:50 EGVN 130050Z 29015KT 9999 FEW019 BKN140 11/08 Q1018 NOSIG WNW (290°) 17.3mph 11°C 8°C
12/01/19 23:50 EGVN 122350Z 30012KT CAVOK 11/07 Q1019 NOSIG WNW (300°) 13.8mph 11°C 7°C
12/01/19 22:50 EGVN 122250Z 29014KT 9999 SCT032 BKN150 11/07 Q1019 NOSIG WNW (290°) 16.1mph 11°C 7°C
12/01/19 21:50 EGVN 122150Z 29013KT 9999 BKN030 11/07 Q1020 NOSIG WNW (290°) 15.0mph 11°C 7°C
12/01/19 20:50 EGVN 122050Z 29014KT 9999 BKN040 10/07 Q1020 NOSIG WNW (290°) 16.1mph 10°C 7°C
12/01/19 19:50 EGVN 121950Z 28008KT 9999 BKN019 09/06 Q1020 NOSIG W (280°) 9.2mph 9°C 6°C
12/01/19 18:50 EGVN 121850Z 29010KT 9999 SCT020 SCT110 BKN190 09/06 Q1020 WHT TEMPO FEW020 BLU WNW (290°) 11.5mph 9°C 6°C
12/01/19 18:42 EGVN 121842Z 29010KT 9999 SCT020 BKN190 09/06 Q1020 WHT TEMPO FEW020 BLU WNW (290°) 11.5mph 9°C 6°C
12/01/19 17:50 EGVN 121750Z 28012KT 9999 FEW020 BKN120 09/06 Q1020 NOSIG W (280°) 13.8mph 9°C 6°C
12/01/19 16:50 EGVN 121650Z 28010KT 9999 FEW025 BKN110 09/05 Q1020 BLU NOSIG W (280°) 11.5mph 9°C 5°C
12/01/19 15:50 EGVN 121550Z 29012KT 9999 FEW025 BKN120 09/05 Q1021 BLU TEMPO SCT024 WHT WNW (290°) 13.8mph 9°C 5°C
12/01/19 14:50 EGVN 121450Z 29011KT 9999 SCT032 BKN120 10/05 Q1021 BLU NOSIG WNW (290°) 12.7mph 10°C 5°C
12/01/19 13:50 EGVN 121350Z 29010KT 9999 FEW027 BKN140 10/05 Q1021 NOSIG WNW (290°) 11.5mph 10°C 5°C
12/01/19 12:50 EGVN 121250Z 29008KT 9999 FEW025 SCT030 BKN140 10/06 Q1022 BLU NOSIG WNW (290°) 9.2mph 10°C 6°C
12/01/19 11:50 EGVN 121150Z 27006KT 9999 FEW020 SCT030 BKN150 09/07 Q1022 BLU NOSIG W (270°) 6.9mph 9°C 7°C
12/01/19 10:50 EGVN 121050Z 26008KT 9999 FEW017 BKN022 09/08 Q1023 BECMG SCT025 W (260°) 9.2mph 9°C 8°C
12/01/19 10:29 EGVN 121029Z 26008KT 5000 -RADZ FEW008 BKN012 08/08 Q1023 GRN BECMG 9999 NSW SCT020 WHT -RA -DZ W (260°) 9.2mph 8°C 8°C
12/01/19 09:50 EGVN 120950Z 26009KT 9999 FEW008 SCT018 BKN030 08/08 Q1023 WHT BECMG SCT025 BLU W (260°) 10.4mph 8°C 8°C
12/01/19 09:39 EGVN 120939Z 26008KT 6000 -RA SCT008 BKN015 08/08 Q1023 TEMPO 9999 NSW SCT018 -RA W (260°) 9.2mph 8°C 8°C
12/01/19 09:23 EGVN 120923Z 25008KT 4000 -RADZ SCT008 BKN015 08/07 Q1023 GRN TEMPO 6000 NSW SCT020 WHT -RA -DZ WSW (250°) 9.2mph 8°C 7°C
12/01/19 08:31 EGVN 120831Z 26009KT 9999 -RA FEW018 BKN022 08/07 Q1023 WHT TEMPO SCT014 GRN -RA W (260°) 10.4mph 8°C 7°C
12/01/19 07:50 EGVN 120750Z 26010KT 9999 FEW020 SCT045 08/06 Q1023 BLU TEMPO SCT020 WHT W (260°) 11.5mph 8°C 6°C
12/01/19 07:39 EGVN 120739Z 26008KT 9999 FEW020 SCT042 08/06 Q1024 TEMPO SCT022 W (260°) 9.2mph 8°C 6°C
12/01/19 06:50 EGVN 120650Z 26008KT 9999 BKN020 08/07 Q1024 WHT TEMPO FEW020 BLU W (260°) 9.2mph 8°C 7°C
12/01/19 06:50 EGVN 120650Z 26008KT 9999 BKN020 08/07 Q1024 TEMPO FEW020 W (260°) 9.2mph 8°C 7°C
12/01/19 05:50 EGVN 120550Z 25006KT 9999 OVC020 08/06 Q1024 NOSIG WSW (250°) 6.9mph 8°C 6°C
12/01/19 04:50 EGVN 120450Z 26007KT 9999 OVC020 08/06 Q1025 NOSIG W (260°) 8.1mph 8°C 6°C
12/01/19 03:50 EGVN 120350Z 24005KT 9999 OVC020 08/05 Q1026 NOSIG WSW (240°) 5.8mph 8°C 5°C
12/01/19 02:50 EGVN 120250Z 25004KT 9999 OVC020 08/05 Q1027 NOSIG WSW (250°) 4.6mph 8°C 5°C
12/01/19 01:50 EGVN 120150Z 26006KT 9999 OVC025 07/04 Q1027 BLU BECMG BKN020 WHT W (260°) 6.9mph 7°C 4°C
12/01/19 00:50 EGVN 120050Z 26005KT 9999 BKN034 07/04 Q1028 BLU NOSIG W (260°) 5.8mph 7°C 4°C
11/01/19 23:50 EGVN 112350Z 24004KT 9999 OVC034 07/04 Q1028 NOSIG WSW (240°) 4.6mph 7°C 4°C
11/01/19 22:50 EGVN 112250Z 26005KT 9999 OVC034 07/04 Q1029 NOSIG W (260°) 5.8mph 7°C 4°C
11/01/19 21:50 EGVN 112150Z 26004KT 9999 OVC034 07/04 Q1030 NOSIG W (260°) 4.6mph 7°C 4°C
11/01/19 20:50 EGVN 112050Z 26003KT 9999 OVC035 07/04 Q1030 BLU NOSIG W (260°) 3.5mph 7°C 4°C
11/01/19 19:50 EGVN 111950Z 26005KT 9999 OVC034 07/04 Q1030 NOSIG W (260°) 5.8mph 7°C 4°C
11/01/19 18:50 EGVN 111850Z 27003KT 9999 BKN030 07/04 Q1031 NOSIG W (270°) 3.5mph 7°C 4°C
11/01/19 17:50 EGVN 111750Z 28004KT 9999 BKN030 07/04 Q1031 NOSIG W (280°) 4.6mph 7°C 4°C
11/01/19 16:50 EGVN 111650Z 33005KT 9999 FEW020 BKN029 07/04 Q1031 NOSIG NNW (330°) 5.8mph 7°C 4°C
11/01/19 16:18 EGVN 111618Z 32007KT 9999 SCT023 BKN026 07/04 Q1031 WHT TEMPO FEW023 BKN028 BLU NW (320°) 8.1mph 7°C 4°C
11/01/19 14:50 EGVN 111450Z 33008KT 9999 FEW015 SCT030 BKN250 08/04 Q1030 NOSIG NNW (330°) 9.2mph 8°C 4°C
11/01/19 13:50 EGVN 111350Z 35008KT 9999 FEW015 BKN250 08/05 Q1030 BLU NOSIG N (350°) 9.2mph 8°C 5°C
11/01/19 12:50 EGVN 111250Z 01006KT 9999 FEW016 BKN250 08/04 Q1031 BLU NOSIG N (10°) 6.9mph 8°C 4°C
11/01/19 11:50 EGVN 111150Z 01004KT 9999 FEW014 BKN200 08/05 Q1031 BLU NOSIG N (10°) 4.6mph 8°C 5°C
11/01/19 10:50 EGVN 111050Z 34004KT 9999 FEW012 SCT050 BKN250 07/05 Q1031 NOSIG NNW (340°) 4.6mph 7°C 5°C
11/01/19 09:50 EGVN 110950Z 10001KT 9999 FEW010 BKN052 07/05 Q1031 NOSIG E (100°) 1.2mph 7°C 5°C
11/01/19 08:50 EGVN 110850Z 24002KT 9999 FEW024 BKN052 06/05 Q1031 NOSIG WSW (240°) 2.3mph 6°C 5°C
11/01/19 07:50 EGVN 110750Z 33006KT 9999 FEW024 BKN055 07/04 Q1030 NOSIG NNW (330°) 6.9mph 7°C 4°C
11/01/19 06:50 EGVN 110650Z 35005KT CAVOK 07/04 Q1030 NOSIG N (350°) 5.8mph 7°C 4°C
11/01/19 05:50 EGVN 110550Z 34006KT CAVOK 06/04 Q1029 NOSIG NNW (340°) 6.9mph 6°C 4°C
11/01/19 04:50 EGVN 110450Z 35006KT 9999 FEW045 BKN050 07/04 Q1030 NOSIG N (350°) 6.9mph 7°C 4°C
11/01/19 03:50 EGVN 110350Z 34006KT 9999 FEW046 BKN050 07/04 Q1029 NOSIG NNW (340°) 6.9mph 7°C 4°C
11/01/19 02:50 EGVN 110250Z 34005KT CAVOK 07/03 Q1029 NOSIG NNW (340°) 5.8mph 7°C 3°C
11/01/19 01:50 EGVN 110150Z 34009KT CAVOK 07/03 Q1029 NOSIG NNW (340°) 10.4mph 7°C 3°C
11/01/19 00:50 EGVN 110050Z 32009KT 9999 FEW030 BKN045 07/04 Q1029 BLU TEMPO 6000 HZ WHT NW (320°) 10.4mph 7°C 4°C
11/01/19 00:50 EGVN 110050Z 32009KT 9999 FEW030 BKN045 07/04 Q1029 TEMPO 6000 HZ NW (320°) 10.4mph 7°C 4°C
10/01/19 23:50 EGVN 102350Z 30005KT 9999 SCT030 BKN040 07/04 Q1030 BLU TEMPO 6000 HZ WHT WNW (300°) 5.8mph 7°C 4°C
10/01/19 22:50 EGVN 102250Z 33008KT 9999 BKN046 07/05 Q1030 BLU TEMPO 6000 HZ WHT NNW (330°) 9.2mph 7°C 5°C
10/01/19 21:50 EGVN 102150Z 34011KT CAVOK 07/06 Q1030 NOSIG NNW (340°) 12.7mph 7°C 6°C
10/01/19 20:50 EGVN 102050Z 33010KT 9999 BKN045 07/06 Q1030 NOSIG NNW (330°) 11.5mph 7°C 6°C
10/01/19 20:08 EGVN 102008Z 34012KT 6000 BR BKN043 07/06 Q1030 WHT TEMPO SCT006 YLO1 BR NNW (340°) 13.8mph 7°C 6°C
10/01/19 19:36 EGVN 101936Z 34013KT 6000 BR BKN006 BKN050 07/06 Q1030 YLO1 TEMPO 4000 SCT004 YLO2 BR NNW (340°) 15.0mph 7°C 6°C
10/01/19 18:50 EGVN 101850Z 35010KT 9999 BKN006 BKN050 07/06 Q1029 YLO1 TEMPO 7000 HZ SCT006 GRN N (350°) 11.5mph 7°C 6°C
10/01/19 18:25 EGVN 101825Z 29002KT 9999 BKN006 BKN050 07/06 Q1029 YLO1 TEMPO BKN007 GRN WNW (290°) 2.3mph 7°C 6°C
10/01/19 17:50 EGVN 101750Z 23003KT 9999 BKN008 BKN050 06/05 Q1029 GRN TEMPO SCT006 YLO1 SW (230°) 3.5mph 6°C 5°C
10/01/19 16:50 EGVN 101650Z 28002KT 9999 BKN008 06/05 Q1030 GRN TEMPO SCT006 YLO1 W (280°) 2.3mph 6°C 5°C
10/01/19 16:50 EGVN 101650Z 28002KT 9999 BKN008 06/05 Q1030 TEMPO SCT006 W (280°) 2.3mph 6°C 5°C